sensor_id;sensor_type;location;lat;lon;timestamp;temperature;humidity
20450;DHT22;10384;51.940;8.432;2024-02-14T00:02:23;6.60;99.90
20450;DHT22;10384;51.940;8.432;2024-02-14T00:04:54;6.70;99.90
20450;DHT22;10384;51.940;8.432;2024-02-14T00:07:21;6.60;99.90
20450;DHT22;10384;51.940;8.432;2024-02-14T00:09:47;6.60;99.90
20450;DHT22;10384;51.940;8.432;2024-02-14T00:12:13;6.70;99.90
20450;DHT22;10384;51.940;8.432;2024-02-14T00:14:39;6.70;99.90
20450;DHT22;10384;51.940;8.432;2024-02-14T00:17:05;6.70;99.90
20450;DHT22;10384;51.940;8.432;2024-02-14T00:19:31;6.70;99.90
20450;DHT22;10384;51.940;8.432;2024-02-14T00:21:57;6.70;99.90
20450;DHT22;10384;51.940;8.432;2024-02-14T00:24:22;6.80;99.90
20450;DHT22;10384;51.940;8.432;2024-02-14T00:26:50;6.80;99.90
20450;DHT22;10384;51.940;8.432;2024-02-14T00:29:15;6.90;99.90
20450;DHT22;10384;51.940;8.432;2024-02-14T00:31:41;6.90;99.90
20450;DHT22;10384;51.940;8.432;2024-02-14T00:34:09;7.00;99.90
20450;DHT22;10384;51.940;8.432;2024-02-14T00:36:35;6.90;99.90
20450;DHT22;10384;51.940;8.432;2024-02-14T00:39:00;7.00;99.90
20450;DHT22;10384;51.940;8.432;2024-02-14T00:41:26;6.90;99.90
20450;DHT22;10384;51.940;8.432;2024-02-14T00:43:55;7.00;99.90
20450;DHT22;10384;51.940;8.432;2024-02-14T00:46:21;7.00;99.90
20450;DHT22;10384;51.940;8.432;2024-02-14T00:48:46;7.00;99.90
20450;DHT22;10384;51.940;8.432;2024-02-14T00:51:12;7.10;99.90
20450;DHT22;10384;51.940;8.432;2024-02-14T00:53:37;7.10;99.90
20450;DHT22;10384;51.940;8.432;2024-02-14T00:56:03;7.20;99.90
20450;DHT22;10384;51.940;8.432;2024-02-14T00:58:29;7.20;99.90
20450;DHT22;10384;51.940;8.432;2024-02-14T01:00:54;7.20;99.90
20450;DHT22;10384;51.940;8.432;2024-02-14T01:03:20;7.20;99.90
20450;DHT22;10384;51.940;8.432;2024-02-14T01:05:47;7.20;99.90
20450;DHT22;10384;51.940;8.432;2024-02-14T01:08:12;7.20;99.90
20450;DHT22;10384;51.940;8.432;2024-02-14T01:10:38;7.20;99.90
20450;DHT22;10384;51.940;8.432;2024-02-14T01:13:04;7.20;99.90
20450;DHT22;10384;51.940;8.432;2024-02-14T01:15:30;7.30;99.90
20450;DHT22;10384;51.940;8.432;2024-02-14T01:17:56;7.30;99.90
20450;DHT22;10384;51.940;8.432;2024-02-14T01:20:21;7.30;99.90
20450;DHT22;10384;51.940;8.432;2024-02-14T01:22:47;7.30;99.90
20450;DHT22;10384;51.940;8.432;2024-02-14T01:25:13;7.30;99.90
20450;DHT22;10384;51.940;8.432;2024-02-14T01:27:39;7.20;99.90
20450;DHT22;10384;51.940;8.432;2024-02-14T01:30:06;7.20;99.90
20450;DHT22;10384;51.940;8.432;2024-02-14T01:32:31;7.10;99.90
20450;DHT22;10384;51.940;8.432;2024-02-14T01:34:57;7.00;99.90
20450;DHT22;10384;51.940;8.432;2024-02-14T01:37:22;6.90;99.90
20450;DHT22;10384;51.940;8.432;2024-02-14T01:39:48;6.90;99.90
20450;DHT22;10384;51.940;8.432;2024-02-14T01:42:14;6.90;99.90
20450;DHT22;10384;51.940;8.432;2024-02-14T01:44:39;6.90;99.90
20450;DHT22;10384;51.940;8.432;2024-02-14T01:47:05;6.90;99.90
20450;DHT22;10384;51.940;8.432;2024-02-14T01:49:33;6.90;99.90
20450;DHT22;10384;51.940;8.432;2024-02-14T01:52:02;6.90;99.90
20450;DHT22;10384;51.940;8.432;2024-02-14T01:54:29;7.00;99.90
20450;DHT22;10384;51.940;8.432;2024-02-14T01:56:56;7.10;99.90
20450;DHT22;10384;51.940;8.432;2024-02-14T01:59:23;7.10;99.90
20450;DHT22;10384;51.940;8.432;2024-02-14T02:01:50;7.20;99.90
20450;DHT22;10384;51.940;8.432;2024-02-14T02:04:17;7.20;99.90
20450;DHT22;10384;51.940;8.432;2024-02-14T02:06:43;7.20;99.90
20450;DHT22;10384;51.940;8.432;2024-02-14T02:09:09;7.20;99.90
20450;DHT22;10384;51.940;8.432;2024-02-14T02:11:51;7.30;99.90
20450;DHT22;10384;51.940;8.432;2024-02-14T02:14:19;7.40;99.90
20450;DHT22;10384;51.940;8.432;2024-02-14T02:16:46;7.40;99.90
20450;DHT22;10384;51.940;8.432;2024-02-14T02:19:12;7.40;99.90
20450;DHT22;10384;51.940;8.432;2024-02-14T02:21:38;7.40;99.90
20450;DHT22;10384;51.940;8.432;2024-02-14T02:24:04;7.50;99.90
20450;DHT22;10384;51.940;8.432;2024-02-14T02:26:30;7.40;99.90
20450;DHT22;10384;51.940;8.432;2024-02-14T02:28:56;7.50;99.90
20450;DHT22;10384;51.940;8.432;2024-02-14T02:31:22;7.50;99.90
20450;DHT22;10384;51.940;8.432;2024-02-14T02:33:47;7.50;99.90
20450;DHT22;10384;51.940;8.432;2024-02-14T02:36:13;7.60;99.90
20450;DHT22;10384;51.940;8.432;2024-02-14T02:38:41;7.50;99.90
20450;DHT22;10384;51.940;8.432;2024-02-14T02:41:07;7.60;99.90
20450;DHT22;10384;51.940;8.432;2024-02-14T02:43:34;7.70;99.90
20450;DHT22;10384;51.940;8.432;2024-02-14T02:46:00;7.60;99.90
20450;DHT22;10384;51.940;8.432;2024-02-14T02:48:25;7.70;99.90
20450;DHT22;10384;51.940;8.432;2024-02-14T02:50:51;7.70;99.90
20450;DHT22;10384;51.940;8.432;2024-02-14T02:53:18;7.70;99.90
20450;DHT22;10384;51.940;8.432;2024-02-14T02:55:43;7.70;99.90
20450;DHT22;10384;51.940;8.432;2024-02-14T02:58:10;7.70;99.90
20450;DHT22;10384;51.940;8.432;2024-02-14T03:00:36;7.80;99.90
20450;DHT22;10384;51.940;8.432;2024-02-14T03:03:01;7.70;99.90
20450;DHT22;10384;51.940;8.432;2024-02-14T03:05:29;7.80;99.90
20450;DHT22;10384;51.940;8.432;2024-02-14T03:07:59;7.80;99.90
20450;DHT22;10384;51.940;8.432;2024-02-14T03:10:25;7.90;99.90
20450;DHT22;10384;51.940;8.432;2024-02-14T03:12:51;7.90;99.90
20450;DHT22;10384;51.940;8.432;2024-02-14T03:15:17;7.90;99.90
20450;DHT22;10384;51.940;8.432;2024-02-14T03:17:44;7.90;99.90
20450;DHT22;10384;51.940;8.432;2024-02-14T03:20:11;7.90;99.90
20450;DHT22;10384;51.940;8.432;2024-02-14T03:22:42;7.90;99.90
20450;DHT22;10384;51.940;8.432;2024-02-14T03:25:13;7.90;99.90
20450;DHT22;10384;51.940;8.432;2024-02-14T03:27:42;8.00;99.90
20450;DHT22;10384;51.940;8.432;2024-02-14T03:30:08;8.10;99.90
20450;DHT22;10384;51.940;8.432;2024-02-14T03:32:33;8.10;99.90
20450;DHT22;10384;51.940;8.432;2024-02-14T03:34:59;8.20;99.90
20450;DHT22;10384;51.940;8.432;2024-02-14T03:37:26;8.20;99.90
20450;DHT22;10384;51.940;8.432;2024-02-14T03:39:52;8.10;99.90
20450;DHT22;10384;51.940;8.432;2024-02-14T03:42:18;8.10;99.90
20450;DHT22;10384;51.940;8.432;2024-02-14T03:44:45;8.10;99.90
20450;DHT22;10384;51.940;8.432;2024-02-14T03:47:11;8.10;99.90
20450;DHT22;10384;51.940;8.432;2024-02-14T03:49:38;8.10;99.90
20450;DHT22;10384;51.940;8.432;2024-02-14T03:52:04;8.10;99.90
20450;DHT22;10384;51.940;8.432;2024-02-14T03:54:35;8.10;99.90
20450;DHT22;10384;51.940;8.432;2024-02-14T03:57:01;8.20;99.90
20450;DHT22;10384;51.940;8.432;2024-02-14T03:59:27;8.10;99.90
20450;DHT22;10384;51.940;8.432;2024-02-14T04:01:52;8.10;99.90
20450;DHT22;10384;51.940;8.432;2024-02-14T04:04:19;8.20;99.90
20450;DHT22;10384;51.940;8.432;2024-02-14T04:06:44;8.20;99.90
20450;DHT22;10384;51.940;8.432;2024-02-14T04:09:11;8.20;99.90
20450;DHT22;10384;51.940;8.432;2024-02-14T04:11:36;8.20;99.90
20450;DHT22;10384;51.940;8.432;2024-02-14T04:14:02;8.20;99.90
20450;DHT22;10384;51.940;8.432;2024-02-14T04:16:27;8.20;99.90
20450;DHT22;10384;51.940;8.432;2024-02-14T04:18:53;8.30;99.90
20450;DHT22;10384;51.940;8.432;2024-02-14T04:21:20;8.20;99.90
20450;DHT22;10384;51.940;8.432;2024-02-14T04:23:46;8.20;99.90
20450;DHT22;10384;51.940;8.432;2024-02-14T04:26:19;8.40;99.90
20450;DHT22;10384;51.940;8.432;2024-02-14T04:28:45;8.30;99.90
20450;DHT22;10384;51.940;8.432;2024-02-14T04:31:10;8.20;99.90
20450;DHT22;10384;51.940;8.432;2024-02-14T04:33:36;8.20;99.90
20450;DHT22;10384;51.940;8.432;2024-02-14T04:36:02;8.30;99.90
20450;DHT22;10384;51.940;8.432;2024-02-14T04:38:27;8.30;99.90
20450;DHT22;10384;51.940;8.432;2024-02-14T04:40:55;8.30;99.90
20450;DHT22;10384;51.940;8.432;2024-02-14T04:43:22;8.20;99.90
20450;DHT22;10384;51.940;8.432;2024-02-14T04:45:47;8.10;99.90
20450;DHT22;10384;51.940;8.432;2024-02-14T04:48:13;8.20;99.90
20450;DHT22;10384;51.940;8.432;2024-02-14T04:50:39;8.20;99.90
20450;DHT22;10384;51.940;8.432;2024-02-14T04:53:04;8.20;99.90
20450;DHT22;10384;51.940;8.432;2024-02-14T04:55:30;8.20;99.90
20450;DHT22;10384;51.940;8.432;2024-02-14T04:57:56;8.20;99.90
20450;DHT22;10384;51.940;8.432;2024-02-14T05:00:21;8.20;99.90
20450;DHT22;10384;51.940;8.432;2024-02-14T05:02:47;8.20;99.90
20450;DHT22;10384;51.940;8.432;2024-02-14T05:05:13;8.20;99.90
20450;DHT22;10384;51.940;8.432;2024-02-14T05:07:38;8.20;99.90
20450;DHT22;10384;51.940;8.432;2024-02-14T05:10:04;8.10;99.90
20450;DHT22;10384;51.940;8.432;2024-02-14T05:12:30;8.00;99.90
20450;DHT22;10384;51.940;8.432;2024-02-14T05:14:55;7.90;99.90
20450;DHT22;10384;51.940;8.432;2024-02-14T05:17:21;7.90;99.90
20450;DHT22;10384;51.940;8.432;2024-02-14T05:19:47;7.90;99.90
20450;DHT22;10384;51.940;8.432;2024-02-14T05:22:12;7.90;99.90
20450;DHT22;10384;51.940;8.432;2024-02-14T05:24:38;7.90;99.90
20450;DHT22;10384;51.940;8.432;2024-02-14T05:27:04;7.80;99.90
20450;DHT22;10384;51.940;8.432;2024-02-14T05:29:30;7.80;99.90
20450;DHT22;10384;51.940;8.432;2024-02-14T05:31:56;7.80;99.90
20450;DHT22;10384;51.940;8.432;2024-02-14T05:34:22;7.80;99.90
20450;DHT22;10384;51.940;8.432;2024-02-14T05:36:48;7.40;99.90
20450;DHT22;10384;51.940;8.432;2024-02-14T05:39:14;7.80;99.90
20450;DHT22;10384;51.940;8.432;2024-02-14T05:41:40;7.80;99.90
20450;DHT22;10384;51.940;8.432;2024-02-14T05:44:05;7.80;99.90
20450;DHT22;10384;51.940;8.432;2024-02-14T05:46:31;7.70;99.90
20450;DHT22;10384;51.940;8.432;2024-02-14T05:48:57;7.70;99.90
20450;DHT22;10384;51.940;8.432;2024-02-14T05:51:23;7.70;99.90
20450;DHT22;10384;51.940;8.432;2024-02-14T05:53:49;7.80;99.90
20450;DHT22;10384;51.940;8.432;2024-02-14T05:56:14;7.70;99.90
20450;DHT22;10384;51.940;8.432;2024-02-14T05:58:40;7.80;99.90
20450;DHT22;10384;51.940;8.432;2024-02-14T06:01:05;7.80;99.90
20450;DHT22;10384;51.940;8.432;2024-02-14T06:03:31;7.80;99.90
20450;DHT22;10384;51.940;8.432;2024-02-14T06:05:57;7.80;99.90
20450;DHT22;10384;51.940;8.432;2024-02-14T06:08:23;7.80;99.90
20450;DHT22;10384;51.940;8.432;2024-02-14T06:10:52;7.80;99.90
20450;DHT22;10384;51.940;8.432;2024-02-14T06:13:18;7.80;99.90
20450;DHT22;10384;51.940;8.432;2024-02-14T06:15:44;7.90;99.90
20450;DHT22;10384;51.940;8.432;2024-02-14T06:18:11;7.90;99.90
20450;DHT22;10384;51.940;8.432;2024-02-14T06:20:36;7.90;99.90
20450;DHT22;10384;51.940;8.432;2024-02-14T06:23:03;7.90;99.90
20450;DHT22;10384;51.940;8.432;2024-02-14T06:25:29;7.90;99.90
20450;DHT22;10384;51.940;8.432;2024-02-14T06:27:54;7.90;99.90
20450;DHT22;10384;51.940;8.432;2024-02-14T06:30:20;8.00;99.90
20450;DHT22;10384;51.940;8.432;2024-02-14T06:32:45;7.90;99.90
20450;DHT22;10384;51.940;8.432;2024-02-14T06:35:11;7.90;99.90
20450;DHT22;10384;51.940;8.432;2024-02-14T06:37:37;7.90;99.90
20450;DHT22;10384;51.940;8.432;2024-02-14T06:40:02;7.90;99.90
20450;DHT22;10384;51.940;8.432;2024-02-14T06:42:28;8.00;99.90
20450;DHT22;10384;51.940;8.432;2024-02-14T06:44:54;8.00;99.90
20450;DHT22;10384;51.940;8.432;2024-02-14T06:47:19;8.00;99.90
20450;DHT22;10384;51.940;8.432;2024-02-14T06:49:45;8.00;99.90
20450;DHT22;10384;51.940;8.432;2024-02-14T06:52:10;8.00;99.90
20450;DHT22;10384;51.940;8.432;2024-02-14T06:54:36;8.00;99.90
20450;DHT22;10384;51.940;8.432;2024-02-14T06:57:01;8.10;99.90
20450;DHT22;10384;51.940;8.432;2024-02-14T06:59:27;8.10;99.90
20450;DHT22;10384;51.940;8.432;2024-02-14T07:01:55;8.70;99.90
20450;DHT22;10384;51.940;8.432;2024-02-14T07:04:22;8.10;99.90
20450;DHT22;10384;51.940;8.432;2024-02-14T07:06:52;8.10;99.90
20450;DHT22;10384;51.940;8.432;2024-02-14T07:09:18;8.10;99.90
20450;DHT22;10384;51.940;8.432;2024-02-14T07:11:43;8.10;99.90
20450;DHT22;10384;51.940;8.432;2024-02-14T07:14:11;8.20;99.90
20450;DHT22;10384;51.940;8.432;2024-02-14T07:16:36;8.10;99.90
20450;DHT22;10384;51.940;8.432;2024-02-14T07:19:02;8.20;99.90
20450;DHT22;10384;51.940;8.432;2024-02-14T07:21:28;8.20;99.90
20450;DHT22;10384;51.940;8.432;2024-02-14T07:23:54;8.30;99.90
20450;DHT22;10384;51.940;8.432;2024-02-14T07:26:19;8.30;99.90
20450;DHT22;10384;51.940;8.432;2024-02-14T07:28:45;8.30;99.90
20450;DHT22;10384;51.940;8.432;2024-02-14T07:31:11;8.30;99.90
20450;DHT22;10384;51.940;8.432;2024-02-14T07:33:37;8.30;99.90
20450;DHT22;10384;51.940;8.432;2024-02-14T07:36:03;8.30;99.90
20450;DHT22;10384;51.940;8.432;2024-02-14T07:38:28;8.40;99.90
20450;DHT22;10384;51.940;8.432;2024-02-14T07:40:54;8.40;99.90
20450;DHT22;10384;51.940;8.432;2024-02-14T07:43:19;8.50;99.90
20450;DHT22;10384;51.940;8.432;2024-02-14T07:45:45;8.40;99.90
20450;DHT22;10384;51.940;8.432;2024-02-14T07:48:10;8.50;99.90
20450;DHT22;10384;51.940;8.432;2024-02-14T07:50:36;8.50;99.90
20450;DHT22;10384;51.940;8.432;2024-02-14T07:53:02;8.40;99.90
20450;DHT22;10384;51.940;8.432;2024-02-14T07:55:28;8.50;99.90
20450;DHT22;10384;51.940;8.432;2024-02-14T07:57:54;8.50;99.90
20450;DHT22;10384;51.940;8.432;2024-02-14T08:00:20;8.50;99.90
20450;DHT22;10384;51.940;8.432;2024-02-14T08:02:51;8.60;99.90
20450;DHT22;10384;51.940;8.432;2024-02-14T08:05:17;8.60;99.90
20450;DHT22;10384;51.940;8.432;2024-02-14T08:07:44;8.50;99.90
20450;DHT22;10384;51.940;8.432;2024-02-14T08:10:11;8.60;99.90
20450;DHT22;10384;51.940;8.432;2024-02-14T08:12:36;8.60;99.90
20450;DHT22;10384;51.940;8.432;2024-02-14T08:15:02;8.70;99.90
20450;DHT22;10384;51.940;8.432;2024-02-14T08:17:31;8.70;99.90
20450;DHT22;10384;51.940;8.432;2024-02-14T08:19:57;8.70;99.90
20450;DHT22;10384;51.940;8.432;2024-02-14T08:22:22;8.70;99.90
20450;DHT22;10384;51.940;8.432;2024-02-14T08:24:48;8.70;99.90
20450;DHT22;10384;51.940;8.432;2024-02-14T08:27:14;8.80;99.90
20450;DHT22;10384;51.940;8.432;2024-02-14T08:29:39;8.80;99.90
20450;DHT22;10384;51.940;8.432;2024-02-14T08:32:06;8.80;99.90
20450;DHT22;10384;51.940;8.432;2024-02-14T08:34:31;8.80;99.90
20450;DHT22;10384;51.940;8.432;2024-02-14T08:36:57;8.70;99.90
20450;DHT22;10384;51.940;8.432;2024-02-14T08:39:22;8.70;99.90
20450;DHT22;10384;51.940;8.432;2024-02-14T08:41:48;8.80;99.90
20450;DHT22;10384;51.940;8.432;2024-02-14T08:44:15;8.70;99.90
20450;DHT22;10384;51.940;8.432;2024-02-14T08:46:40;8.70;99.90
20450;DHT22;10384;51.940;8.432;2024-02-14T08:49:10;8.80;99.90
20450;DHT22;10384;51.940;8.432;2024-02-14T08:51:36;8.80;99.90
20450;DHT22;10384;51.940;8.432;2024-02-14T08:54:02;8.80;99.90
20450;DHT22;10384;51.940;8.432;2024-02-14T08:56:32;8.80;99.90
20450;DHT22;10384;51.940;8.432;2024-02-14T08:59:01;8.80;99.90
20450;DHT22;10384;51.940;8.432;2024-02-14T09:01:28;8.90;99.90
20450;DHT22;10384;51.940;8.432;2024-02-14T09:03:54;8.90;99.90
20450;DHT22;10384;51.940;8.432;2024-02-14T09:06:20;8.90;99.90
20450;DHT22;10384;51.940;8.432;2024-02-14T09:08:46;8.90;99.90
20450;DHT22;10384;51.940;8.432;2024-02-14T09:11:12;9.00;99.90
20450;DHT22;10384;51.940;8.432;2024-02-14T09:13:38;9.00;99.90
20450;DHT22;10384;51.940;8.432;2024-02-14T09:16:08;9.00;99.90
20450;DHT22;10384;51.940;8.432;2024-02-14T09:18:34;9.00;99.90
20450;DHT22;10384;51.940;8.432;2024-02-14T09:21:01;9.00;99.90
20450;DHT22;10384;51.940;8.432;2024-02-14T09:23:28;9.10;99.90
20450;DHT22;10384;51.940;8.432;2024-02-14T09:25:55;9.10;99.90
20450;DHT22;10384;51.940;8.432;2024-02-14T09:28:22;9.10;99.90
20450;DHT22;10384;51.940;8.432;2024-02-14T09:30:48;9.10;99.90
20450;DHT22;10384;51.940;8.432;2024-02-14T09:33:13;9.10;99.90
20450;DHT22;10384;51.940;8.432;2024-02-14T09:35:39;9.10;99.90
20450;DHT22;10384;51.940;8.432;2024-02-14T09:38:10;9.20;99.90
20450;DHT22;10384;51.940;8.432;2024-02-14T09:40:38;9.20;99.90
20450;DHT22;10384;51.940;8.432;2024-02-14T09:43:05;9.20;99.90
20450;DHT22;10384;51.940;8.432;2024-02-14T09:45:33;9.20;99.90
20450;DHT22;10384;51.940;8.432;2024-02-14T09:47:59;9.20;99.90
20450;DHT22;10384;51.940;8.432;2024-02-14T09:50:26;9.20;99.90
20450;DHT22;10384;51.940;8.432;2024-02-14T09:52:56;9.20;99.90
20450;DHT22;10384;51.940;8.432;2024-02-14T09:55:23;9.30;99.90
20450;DHT22;10384;51.940;8.432;2024-02-14T09:57:50;9.30;99.90
20450;DHT22;10384;51.940;8.432;2024-02-14T10:00:17;9.30;99.90
20450;DHT22;10384;51.940;8.432;2024-02-14T10:02:43;9.30;99.90
20450;DHT22;10384;51.940;8.432;2024-02-14T10:05:09;9.30;99.90
20450;DHT22;10384;51.940;8.432;2024-02-14T10:07:41;9.40;99.90
20450;DHT22;10384;51.940;8.432;2024-02-14T10:10:07;9.40;99.90
20450;DHT22;10384;51.940;8.432;2024-02-14T10:12:33;9.50;99.90
20450;DHT22;10384;51.940;8.432;2024-02-14T10:14:58;9.50;99.90
20450;DHT22;10384;51.940;8.432;2024-02-14T10:17:24;9.60;99.90
20450;DHT22;10384;51.940;8.432;2024-02-14T10:20:00;9.50;99.90
20450;DHT22;10384;51.940;8.432;2024-02-14T10:22:37;9.60;99.90
20450;DHT22;10384;51.940;8.432;2024-02-14T10:25:04;9.60;99.90
20450;DHT22;10384;51.940;8.432;2024-02-14T10:27:36;9.60;99.90
20450;DHT22;10384;51.940;8.432;2024-02-14T10:30:05;9.70;99.90
20450;DHT22;10384;51.940;8.432;2024-02-14T10:32:30;9.70;99.90
20450;DHT22;10384;51.940;8.432;2024-02-14T10:34:56;9.80;99.90
20450;DHT22;10384;51.940;8.432;2024-02-14T10:37:24;9.80;99.90
20450;DHT22;10384;51.940;8.432;2024-02-14T10:39:51;9.80;99.90
20450;DHT22;10384;51.940;8.432;2024-02-14T10:42:18;9.80;99.90
20450;DHT22;10384;51.940;8.432;2024-02-14T10:44:44;9.80;99.90
20450;DHT22;10384;51.940;8.432;2024-02-14T10:47:16;9.90;99.90
20450;DHT22;10384;51.940;8.432;2024-02-14T10:49:44;9.90;99.90
20450;DHT22;10384;51.940;8.432;2024-02-14T10:52:11;10.00;99.90
20450;DHT22;10384;51.940;8.432;2024-02-14T10:54:37;10.00;99.90
20450;DHT22;10384;51.940;8.432;2024-02-14T10:57:06;10.00;99.90
20450;DHT22;10384;51.940;8.432;2024-02-14T10:59:39;10.00;99.90
20450;DHT22;10384;51.940;8.432;2024-02-14T11:02:06;10.00;99.90
20450;DHT22;10384;51.940;8.432;2024-02-14T11:04:32;10.10;99.90
20450;DHT22;10384;51.940;8.432;2024-02-14T11:06:58;10.10;99.90
20450;DHT22;10384;51.940;8.432;2024-02-14T11:09:36;10.10;99.90
20450;DHT22;10384;51.940;8.432;2024-02-14T11:12:02;10.10;99.90
20450;DHT22;10384;51.940;8.432;2024-02-14T11:14:34;10.20;99.90
20450;DHT22;10384;51.940;8.432;2024-02-14T11:17:04;10.10;99.90
20450;DHT22;10384;51.940;8.432;2024-02-14T11:19:33;10.00;99.90
20450;DHT22;10384;51.940;8.432;2024-02-14T11:22:10;9.90;99.90
20450;DHT22;10384;51.940;8.432;2024-02-14T11:24:37;10.00;99.90
20450;DHT22;10384;51.940;8.432;2024-02-14T11:27:03;10.10;99.90
20450;DHT22;10384;51.940;8.432;2024-02-14T11:29:29;10.00;99.90
20450;DHT22;10384;51.940;8.432;2024-02-14T11:31:59;10.10;99.90
20450;DHT22;10384;51.940;8.432;2024-02-14T11:34:26;10.10;99.90
20450;DHT22;10384;51.940;8.432;2024-02-14T11:36:51;10.10;99.90
20450;DHT22;10384;51.940;8.432;2024-02-14T11:39:17;10.10;99.90
20450;DHT22;10384;51.940;8.432;2024-02-14T11:41:43;10.20;99.90
20450;DHT22;10384;51.940;8.432;2024-02-14T11:44:08;10.20;99.90
20450;DHT22;10384;51.940;8.432;2024-02-14T11:46:35;10.20;99.90
20450;DHT22;10384;51.940;8.432;2024-02-14T11:49:04;10.20;99.90
20450;DHT22;10384;51.940;8.432;2024-02-14T11:51:30;10.20;99.90
20450;DHT22;10384;51.940;8.432;2024-02-14T11:53:57;10.20;99.90
20450;DHT22;10384;51.940;8.432;2024-02-14T11:56:36;10.20;99.90
20450;DHT22;10384;51.940;8.432;2024-02-14T11:59:03;10.20;99.90
20450;DHT22;10384;51.940;8.432;2024-02-14T12:01:31;10.30;99.90
20450;DHT22;10384;51.940;8.432;2024-02-14T12:04:00;10.30;99.90
20450;DHT22;10384;51.940;8.432;2024-02-14T12:06:28;10.30;99.90
20450;DHT22;10384;51.940;8.432;2024-02-14T12:08:54;10.30;99.90
20450;DHT22;10384;51.940;8.432;2024-02-14T12:11:20;10.30;99.90
20450;DHT22;10384;51.940;8.432;2024-02-14T12:13:50;10.30;99.90
20450;DHT22;10384;51.940;8.432;2024-02-14T12:16:15;10.30;99.90
20450;DHT22;10384;51.940;8.432;2024-02-14T12:18:41;10.20;99.90
20450;DHT22;10384;51.940;8.432;2024-02-14T12:21:07;10.30;99.90
20450;DHT22;10384;51.940;8.432;2024-02-14T12:23:33;10.20;99.90
20450;DHT22;10384;51.940;8.432;2024-02-14T12:26:03;10.30;99.90
20450;DHT22;10384;51.940;8.432;2024-02-14T12:28:29;10.30;99.90
20450;DHT22;10384;51.940;8.432;2024-02-14T12:30:58;10.30;99.90
20450;DHT22;10384;51.940;8.432;2024-02-14T12:33:27;10.30;99.90
20450;DHT22;10384;51.940;8.432;2024-02-14T12:35:57;10.30;99.90
20450;DHT22;10384;51.940;8.432;2024-02-14T12:38:24;10.20;99.90
20450;DHT22;10384;51.940;8.432;2024-02-14T12:40:50;10.20;99.90
20450;DHT22;10384;51.940;8.432;2024-02-14T12:43:16;10.20;99.90
20450;DHT22;10384;51.940;8.432;2024-02-14T12:45:42;10.20;99.90
20450;DHT22;10384;51.940;8.432;2024-02-14T12:48:09;10.30;99.90
20450;DHT22;10384;51.940;8.432;2024-02-14T12:50:36;10.30;99.90
20450;DHT22;10384;51.940;8.432;2024-02-14T12:53:10;10.40;99.90
20450;DHT22;10384;51.940;8.432;2024-02-14T12:55:35;10.40;99.90
20450;DHT22;10384;51.940;8.432;2024-02-14T12:58:01;10.30;99.90
20450;DHT22;10384;51.940;8.432;2024-02-14T13:00:27;10.40;99.90
20450;DHT22;10384;51.940;8.432;2024-02-14T13:02:54;10.40;99.90
20450;DHT22;10384;51.940;8.432;2024-02-14T13:05:20;10.40;99.90
20450;DHT22;10384;51.940;8.432;2024-02-14T13:07:46;10.40;99.90
20450;DHT22;10384;51.940;8.432;2024-02-14T13:10:12;10.40;99.90
20450;DHT22;10384;51.940;8.432;2024-02-14T13:12:38;10.50;99.90
20450;DHT22;10384;51.940;8.432;2024-02-14T13:15:07;10.50;99.90
20450;DHT22;10384;51.940;8.432;2024-02-14T13:17:33;10.50;99.90
20450;DHT22;10384;51.940;8.432;2024-02-14T13:19:59;10.50;99.90
20450;DHT22;10384;51.940;8.432;2024-02-14T13:22:25;10.60;99.90
20450;DHT22;10384;51.940;8.432;2024-02-14T13:24:51;10.60;99.90
20450;DHT22;10384;51.940;8.432;2024-02-14T13:27:17;10.50;99.90
20450;DHT22;10384;51.940;8.432;2024-02-14T13:29:42;10.60;99.90
20450;DHT22;10384;51.940;8.432;2024-02-14T13:32:09;10.70;99.90
20450;DHT22;10384;51.940;8.432;2024-02-14T13:34:34;10.60;99.90
20450;DHT22;10384;51.940;8.432;2024-02-14T13:37:00;10.80;99.90
20450;DHT22;10384;51.940;8.432;2024-02-14T13:39:26;10.80;99.90
20450;DHT22;10384;51.940;8.432;2024-02-14T13:41:51;10.90;99.90
20450;DHT22;10384;51.940;8.432;2024-02-14T13:44:17;10.90;99.90
20450;DHT22;10384;51.940;8.432;2024-02-14T13:46:45;11.00;99.90
20450;DHT22;10384;51.940;8.432;2024-02-14T13:49:16;11.00;99.90
20450;DHT22;10384;51.940;8.432;2024-02-14T13:51:47;11.00;99.90
20450;DHT22;10384;51.940;8.432;2024-02-14T13:54:13;11.00;99.90
20450;DHT22;10384;51.940;8.432;2024-02-14T13:56:39;11.10;99.90
20450;DHT22;10384;51.940;8.432;2024-02-14T13:59:04;11.10;99.90
20450;DHT22;10384;51.940;8.432;2024-02-14T14:01:30;11.30;99.90
20450;DHT22;10384;51.940;8.432;2024-02-14T14:03:55;11.10;99.90
20450;DHT22;10384;51.940;8.432;2024-02-14T14:06:23;11.20;99.90
20450;DHT22;10384;51.940;8.432;2024-02-14T14:08:50;11.10;99.90
20450;DHT22;10384;51.940;8.432;2024-02-14T14:11:15;11.10;99.90
20450;DHT22;10384;51.940;8.432;2024-02-14T14:13:41;11.20;99.90
20450;DHT22;10384;51.940;8.432;2024-02-14T14:16:07;11.30;99.90
20450;DHT22;10384;51.940;8.432;2024-02-14T14:18:32;11.20;99.90
20450;DHT22;10384;51.940;8.432;2024-02-14T14:20:58;11.20;99.90
20450;DHT22;10384;51.940;8.432;2024-02-14T14:23:24;11.20;99.90
20450;DHT22;10384;51.940;8.432;2024-02-14T14:25:49;11.20;99.90
20450;DHT22;10384;51.940;8.432;2024-02-14T14:28:15;11.30;99.90
20450;DHT22;10384;51.940;8.432;2024-02-14T14:30:41;11.30;99.90
20450;DHT22;10384;51.940;8.432;2024-02-14T14:33:07;11.30;99.90
20450;DHT22;10384;51.940;8.432;2024-02-14T14:35:36;11.30;99.90
20450;DHT22;10384;51.940;8.432;2024-02-14T14:38:02;11.30;99.90
20450;DHT22;10384;51.940;8.432;2024-02-14T14:40:28;11.30;99.90
20450;DHT22;10384;51.940;8.432;2024-02-14T14:42:54;11.40;99.90
20450;DHT22;10384;51.940;8.432;2024-02-14T14:45:20;11.40;99.90
20450;DHT22;10384;51.940;8.432;2024-02-14T14:47:45;11.40;99.90
20450;DHT22;10384;51.940;8.432;2024-02-14T14:50:12;11.50;99.90
20450;DHT22;10384;51.940;8.432;2024-02-14T14:52:43;11.50;99.90
20450;DHT22;10384;51.940;8.432;2024-02-14T14:55:09;11.50;99.90
20450;DHT22;10384;51.940;8.432;2024-02-14T14:57:35;11.50;99.90
20450;DHT22;10384;51.940;8.432;2024-02-14T15:00:08;11.40;99.90
20450;DHT22;10384;51.940;8.432;2024-02-14T15:02:37;11.40;99.90
20450;DHT22;10384;51.940;8.432;2024-02-14T15:05:04;11.50;99.90
20450;DHT22;10384;51.940;8.432;2024-02-14T15:07:30;11.40;99.90
20450;DHT22;10384;51.940;8.432;2024-02-14T15:09:55;11.30;99.90
20450;DHT22;10384;51.940;8.432;2024-02-14T15:12:21;11.30;99.90
20450;DHT22;10384;51.940;8.432;2024-02-14T15:14:51;11.40;99.90
20450;DHT22;10384;51.940;8.432;2024-02-14T15:17:16;11.30;99.90
20450;DHT22;10384;51.940;8.432;2024-02-14T15:19:42;11.20;99.90
20450;DHT22;10384;51.940;8.432;2024-02-14T15:22:08;11.10;99.90
20450;DHT22;10384;51.940;8.432;2024-02-14T15:24:33;11.10;99.90
20450;DHT22;10384;51.940;8.432;2024-02-14T15:27:01;11.00;99.90
20450;DHT22;10384;51.940;8.432;2024-02-14T15:29:28;11.10;99.90
20450;DHT22;10384;51.940;8.432;2024-02-14T15:32:12;11.00;99.90
20450;DHT22;10384;51.940;8.432;2024-02-14T15:34:56;11.00;99.90
20450;DHT22;10384;51.940;8.432;2024-02-14T15:37:22;10.90;99.90
20450;DHT22;10384;51.940;8.432;2024-02-14T15:39:48;10.80;99.90